sensor_id;sensor_type;location;lat;lon;timestamp;pressure;altitude;pressure_sealevel;temperature;humidity
73457;BME280;61691;53.072;6.582;2023-07-29T00:01:24;100670.47;;;19.48;76.42
73457;BME280;61691;53.072;6.582;2023-07-29T00:03:51;100659.25;;;19.45;76.33
73457;BME280;61691;53.072;6.582;2023-07-29T00:06:18;100653.44;;;19.41;76.42
73457;BME280;61691;53.072;6.582;2023-07-29T00:08:44;100652.66;;;19.47;76.38
73457;BME280;61691;53.072;6.582;2023-07-29T00:11:11;100666.56;;;19.51;76.48
73457;BME280;61691;53.072;6.582;2023-07-29T00:13:38;100657.41;;;19.45;76.53
73457;BME280;61691;53.072;6.582;2023-07-29T00:16:04;100652.94;;;19.52;76.53
73457;BME280;61691;53.072;6.582;2023-07-29T00:18:32;100661.63;;;19.54;76.68
73457;BME280;61691;53.072;6.582;2023-07-29T00:20:59;100638.97;;;19.42;76.60
73457;BME280;61691;53.072;6.582;2023-07-29T00:23:26;100651.25;;;19.51;76.62
73457;BME280;61691;53.072;6.582;2023-07-29T00:25:52;100648.19;;;19.54;76.61
73457;BME280;61691;53.072;6.582;2023-07-29T00:28:19;100653.59;;;19.61;76.50
73457;BME280;61691;53.072;6.582;2023-07-29T00:30:48;100633.47;;;19.50;76.30
73457;BME280;61691;53.072;6.582;2023-07-29T00:33:15;100624.13;;;19.46;76.33
73457;BME280;61691;53.072;6.582;2023-07-29T00:35:42;100637.81;;;19.51;76.10
73457;BME280;61691;53.072;6.582;2023-07-29T00:38:09;100640.69;;;19.50;76.41
73457;BME280;61691;53.072;6.582;2023-07-29T00:40:36;100639.88;;;19.49;76.39
73457;BME280;61691;53.072;6.582;2023-07-29T00:43:03;100640.25;;;19.46;76.32
73457;BME280;61691;53.072;6.582;2023-07-29T00:45:31;100638.13;;;19.42;76.34
73457;BME280;61691;53.072;6.582;2023-07-29T00:47:59;100637.72;;;19.38;76.53
73457;BME280;61691;53.072;6.582;2023-07-29T00:50:27;100641.66;;;19.42;76.47
73457;BME280;61691;53.072;6.582;2023-07-29T00:52:55;100637.25;;;19.34;76.53
73457;BME280;61691;53.072;6.582;2023-07-29T00:55:23;100641.41;;;19.37;76.63
73457;BME280;61691;53.072;6.582;2023-07-29T00:57:51;100649.84;;;19.34;76.37
73457;BME280;61691;53.072;6.582;2023-07-29T01:00:21;100646.09;;;19.28;76.39
73457;BME280;61691;53.072;6.582;2023-07-29T01:02:48;100627.63;;;19.19;76.43
73457;BME280;61691;53.072;6.582;2023-07-29T01:05:16;100636.53;;;19.19;76.67
73457;BME280;61691;53.072;6.582;2023-07-29T01:08:00;100636.72;;;19.18;76.79
73457;BME280;61691;53.072;6.582;2023-07-29T01:10:54;100631.28;;;19.11;76.85
73457;BME280;61691;53.072;6.582;2023-07-29T01:13:52;100620.91;;;19.02;76.74
73457;BME280;61691;53.072;6.582;2023-07-29T01:16:24;100632.03;;;18.99;76.43
73457;BME280;61691;53.072;6.582;2023-07-29T01:18:54;100631.66;;;19.02;76.89
73457;BME280;61691;53.072;6.582;2023-07-29T01:21:22;100624.56;;;18.94;76.98
73457;BME280;61691;53.072;6.582;2023-07-29T01:23:52;100623.47;;;18.88;76.94
73457;BME280;61691;53.072;6.582;2023-07-29T01:26:19;100622.84;;;18.86;76.98
73457;BME280;61691;53.072;6.582;2023-07-29T01:28:46;100626.56;;;18.85;77.04
73457;BME280;61691;53.072;6.582;2023-07-29T01:31:32;100602.66;;;18.69;77.11
73457;BME280;61691;53.072;6.582;2023-07-29T01:34:26;100603.66;;;18.68;77.37
73457;BME280;61691;53.072;6.582;2023-07-29T01:36:57;100602.00;;;18.67;77.20
73457;BME280;61691;53.072;6.582;2023-07-29T01:39:30;100607.56;;;18.66;77.58
73457;BME280;61691;53.072;6.582;2023-07-29T01:41:59;100606.09;;;18.63;77.49
73457;BME280;61691;53.072;6.582;2023-07-29T01:44:26;100581.16;;;18.48;77.39
73457;BME280;61691;53.072;6.582;2023-07-29T01:46:55;100613.16;;;18.64;77.65
73457;BME280;61691;53.072;6.582;2023-07-29T01:49:22;100615.19;;;18.62;77.76
73457;BME280;61691;53.072;6.582;2023-07-29T01:51:49;100612.59;;;18.54;77.77
73457;BME280;61691;53.072;6.582;2023-07-29T01:54:15;100587.66;;;18.39;77.77
73457;BME280;61691;53.072;6.582;2023-07-29T01:56:42;100611.28;;;18.50;77.94
73457;BME280;61691;53.072;6.582;2023-07-29T01:59:09;100596.72;;;18.38;78.20
73457;BME280;61691;53.072;6.582;2023-07-29T02:01:35;100609.13;;;18.39;77.95
73457;BME280;61691;53.072;6.582;2023-07-29T02:04:02;100602.03;;;18.31;77.95
73457;BME280;61691;53.072;6.582;2023-07-29T02:06:29;100600.19;;;18.32;78.38
73457;BME280;61691;53.072;6.582;2023-07-29T02:08:56;100611.56;;;18.34;78.35
73457;BME280;61691;53.072;6.582;2023-07-29T02:11:22;100595.38;;;18.27;78.35
73457;BME280;61691;53.072;6.582;2023-07-29T02:13:54;100600.00;;;18.33;78.44
73457;BME280;61691;53.072;6.582;2023-07-29T02:16:22;100609.50;;;18.36;78.47
73457;BME280;61691;53.072;6.582;2023-07-29T02:18:51;100606.56;;;18.31;78.37
73457;BME280;61691;53.072;6.582;2023-07-29T02:21:21;100607.84;;;18.35;78.80
73457;BME280;61691;53.072;6.582;2023-07-29T02:23:48;100589.56;;;18.24;78.73
73457;BME280;61691;53.072;6.582;2023-07-29T02:26:17;100591.22;;;18.25;78.82
73457;BME280;61691;53.072;6.582;2023-07-29T02:28:44;100598.53;;;18.31;78.78
73457;BME280;61691;53.072;6.582;2023-07-29T02:31:16;100603.88;;;18.31;78.67
73457;BME280;61691;53.072;6.582;2023-07-29T02:33:43;100585.59;;;18.19;78.71
73457;BME280;61691;53.072;6.582;2023-07-29T02:36:12;100600.56;;;18.29;78.87
73457;BME280;61691;53.072;6.582;2023-07-29T02:38:42;100576.63;;;18.12;78.80
73457;BME280;61691;53.072;6.582;2023-07-29T02:41:10;100583.31;;;18.16;78.93
73457;BME280;61691;53.072;6.582;2023-07-29T02:43:39;100586.63;;;18.18;78.91
73457;BME280;61691;53.072;6.582;2023-07-29T02:46:08;100587.00;;;18.15;79.17
73457;BME280;61691;53.072;6.582;2023-07-29T02:48:34;100592.38;;;18.15;78.97
73457;BME280;61691;53.072;6.582;2023-07-29T02:51:01;100586.09;;;18.08;78.85
73457;BME280;61691;53.072;6.582;2023-07-29T02:53:28;100547.88;;;17.85;79.06
73457;BME280;61691;53.072;6.582;2023-07-29T02:55:55;100587.38;;;18.12;79.21
73457;BME280;61691;53.072;6.582;2023-07-29T02:58:21;100582.00;;;18.12;79.25
73457;BME280;61691;53.072;6.582;2023-07-29T03:00:48;100567.44;;;18.00;79.35
73457;BME280;61691;53.072;6.582;2023-07-29T03:03:15;100564.63;;;18.08;79.20
73457;BME280;61691;53.072;6.582;2023-07-29T03:05:42;100574.78;;;18.13;79.21
73457;BME280;61691;53.072;6.582;2023-07-29T03:08:09;100574.34;;;18.09;79.29
73457;BME280;61691;53.072;6.582;2023-07-29T03:10:35;100582.84;;;18.13;79.31
73457;BME280;61691;53.072;6.582;2023-07-29T03:13:05;100567.31;;;18.08;79.08
73457;BME280;61691;53.072;6.582;2023-07-29T03:15:31;100575.00;;;18.11;79.04
73457;BME280;61691;53.072;6.582;2023-07-29T03:18:00;100579.53;;;18.11;79.50
73457;BME280;61691;53.072;6.582;2023-07-29T03:20:27;100581.16;;;18.12;79.19
73457;BME280;61691;53.072;6.582;2023-07-29T03:22:54;100538.81;;;17.86;79.20
73457;BME280;61691;53.072;6.582;2023-07-29T03:25:20;100554.38;;;17.97;79.22
73457;BME280;61691;53.072;6.582;2023-07-29T03:27:47;100583.06;;;18.11;79.15
73457;BME280;61691;53.072;6.582;2023-07-29T03:30:19;100573.44;;;18.02;79.30
73457;BME280;61691;53.072;6.582;2023-07-29T03:32:46;100582.41;;;18.09;79.21
73457;BME280;61691;53.072;6.582;2023-07-29T03:35:13;100559.97;;;17.96;79.24
73457;BME280;61691;53.072;6.582;2023-07-29T03:37:40;100575.72;;;18.05;79.33
73457;BME280;61691;53.072;6.582;2023-07-29T03:40:08;100558.84;;;17.90;79.24
73457;BME280;61691;53.072;6.582;2023-07-29T03:42:36;100577.16;;;18.01;79.18
73457;BME280;61691;53.072;6.582;2023-07-29T03:45:03;100565.50;;;17.94;79.12
73457;BME280;61691;53.072;6.582;2023-07-29T03:47:30;100557.22;;;17.89;79.28
73457;BME280;61691;53.072;6.582;2023-07-29T03:49:56;100554.06;;;17.86;79.30
73457;BME280;61691;53.072;6.582;2023-07-29T03:52:23;100559.44;;;17.86;79.16
73457;BME280;61691;53.072;6.582;2023-07-29T03:54:50;100568.56;;;17.91;79.26
73457;BME280;61691;53.072;6.582;2023-07-29T03:57:17;100557.69;;;17.78;79.41
73457;BME280;61691;53.072;6.582;2023-07-29T03:59:43;100560.06;;;17.88;79.43
73457;BME280;61691;53.072;6.582;2023-07-29T04:02:10;100560.44;;;17.85;79.28
73457;BME280;61691;53.072;6.582;2023-07-29T04:04:37;100556.75;;;17.86;79.57
73457;BME280;61691;53.072;6.582;2023-07-29T04:07:04;100558.59;;;17.85;79.31
73457;BME280;61691;53.072;6.582;2023-07-29T04:09:31;100558.59;;;17.85;79.67
73457;BME280;61691;53.072;6.582;2023-07-29T04:11:57;100534.31;;;17.72;79.63
73457;BME280;61691;53.072;6.582;2023-07-29T04:14:24;100538.25;;;17.76;79.45
73457;BME280;61691;53.072;6.582;2023-07-29T04:16:51;100548.69;;;17.86;79.61
73457;BME280;61691;53.072;6.582;2023-07-29T04:19:18;100556.63;;;17.94;79.14
73457;BME280;61691;53.072;6.582;2023-07-29T04:21:44;100541.75;;;17.91;79.45
73457;BME280;61691;53.072;6.582;2023-07-29T04:24:12;100528.09;;;17.86;79.48
73457;BME280;61691;53.072;6.582;2023-07-29T04:26:39;100528.09;;;17.86;79.45
73457;BME280;61691;53.072;6.582;2023-07-29T04:29:06;100548.84;;;17.99;79.34
73457;BME280;61691;53.072;6.582;2023-07-29T04:31:32;100544.50;;;17.98;79.41
73457;BME280;61691;53.072;6.582;2023-07-29T04:33:59;100559.28;;;18.08;79.48
73457;BME280;61691;53.072;6.582;2023-07-29T04:36:26;100527.84;;;18.02;79.28
73457;BME280;61691;53.072;6.582;2023-07-29T04:38:52;100553.66;;;18.25;79.38
73457;BME280;61691;53.072;6.582;2023-07-29T04:41:19;100547.06;;;18.27;79.28
73457;BME280;61691;53.072;6.582;2023-07-29T04:43:46;100544.09;;;18.58;80.02
73457;BME280;61691;53.072;6.582;2023-07-29T04:46:13;100521.94;;;18.77;79.60
73457;BME280;61691;53.072;6.582;2023-07-29T04:48:40;100539.22;;;19.24;79.23
73457;BME280;61691;53.072;6.582;2023-07-29T04:51:06;100535.25;;;19.54;78.76
73457;BME280;61691;53.072;6.582;2023-07-29T04:53:33;100537.00;;;19.82;77.70
73457;BME280;61691;53.072;6.582;2023-07-29T04:56:02;100550.31;;;20.03;77.09
73457;BME280;61691;53.072;6.582;2023-07-29T04:58:29;100533.41;;;20.22;77.06
73457;BME280;61691;53.072;6.582;2023-07-29T05:00:56;100530.31;;;20.38;75.38
73457;BME280;61691;53.072;6.582;2023-07-29T05:03:22;100542.16;;;20.51;74.98
73457;BME280;61691;53.072;6.582;2023-07-29T05:05:49;100541.31;;;20.43;73.95
73457;BME280;61691;53.072;6.582;2023-07-29T05:08:18;100538.34;;;20.25;73.43
73457;BME280;61691;53.072;6.582;2023-07-29T05:10:48;100551.16;;;20.10;73.14
73457;BME280;61691;53.072;6.582;2023-07-29T05:13:17;100514.00;;;19.73;72.98
73457;BME280;61691;53.072;6.582;2023-07-29T05:15:44;100528.91;;;19.68;72.87
73457;BME280;61691;53.072;6.582;2023-07-29T05:18:11;100555.31;;;19.58;72.69
73457;BME280;61691;53.072;6.582;2023-07-29T05:20:38;100523.69;;;19.26;72.82
73457;BME280;61691;53.072;6.582;2023-07-29T05:23:04;100546.22;;;19.25;73.10
73457;BME280;61691;53.072;6.582;2023-07-29T05:25:31;100539.94;;;19.11;72.89
73457;BME280;61691;53.072;6.582;2023-07-29T05:27:58;100550.06;;;19.09;73.46
73457;BME280;61691;53.072;6.582;2023-07-29T05:30:24;100536.16;;;18.99;73.23
73457;BME280;61691;53.072;6.582;2023-07-29T05:32:53;100509.53;;;18.76;73.34
73457;BME280;61691;53.072;6.582;2023-07-29T05:35:20;100541.84;;;18.89;73.65
73457;BME280;61691;53.072;6.582;2023-07-29T05:37:46;100522.31;;;18.74;73.95
73457;BME280;61691;53.072;6.582;2023-07-29T05:40:13;100534.78;;;18.82;73.81
73457;BME280;61691;53.072;6.582;2023-07-29T05:42:40;100550.94;;;18.88;73.98
73457;BME280;61691;53.072;6.582;2023-07-29T05:45:07;100548.66;;;18.85;73.95
73457;BME280;61691;53.072;6.582;2023-07-29T05:47:34;100572.09;;;18.98;73.87
73457;BME280;61691;53.072;6.582;2023-07-29T05:50:01;100565.88;;;18.98;74.10
73457;BME280;61691;53.072;6.582;2023-07-29T05:52:31;100577.66;;;18.97;74.10
73457;BME280;61691;53.072;6.582;2023-07-29T05:54:58;100571.63;;;18.94;74.24
73457;BME280;61691;53.072;6.582;2023-07-29T05:57:25;100559.63;;;18.90;74.08
73457;BME280;61691;53.072;6.582;2023-07-29T05:59:51;100565.78;;;18.84;74.23
73457;BME280;61691;53.072;6.582;2023-07-29T06:02:18;100577.38;;;18.85;74.29
73457;BME280;61691;53.072;6.582;2023-07-29T06:04:45;100582.94;;;18.83;74.36
73457;BME280;61691;53.072;6.582;2023-07-29T06:07:11;100573.81;;;18.78;74.28
73457;BME280;61691;53.072;6.582;2023-07-29T06:09:39;100601.34;;;18.86;74.35
73457;BME280;61691;53.072;6.582;2023-07-29T06:12:06;100574.38;;;18.73;74.31
73457;BME280;61691;53.072;6.582;2023-07-29T06:14:33;100576.03;;;18.74;74.29
73457;BME280;61691;53.072;6.582;2023-07-29T06:17:00;100564.66;;;18.72;74.40
73457;BME280;61691;53.072;6.582;2023-07-29T06:19:27;100596.19;;;18.85;74.38
73457;BME280;61691;53.072;6.582;2023-07-29T06:21:55;100599.75;;;18.92;74.46
73457;BME280;61691;53.072;6.582;2023-07-29T06:24:22;100572.00;;;18.85;74.48
73457;BME280;61691;53.072;6.582;2023-07-29T06:26:48;100589.28;;;19.04;74.46
73457;BME280;61691;53.072;6.582;2023-07-29T06:29:15;100575.56;;;19.20;74.51
73457;BME280;61691;53.072;6.582;2023-07-29T06:31:42;100523.41;;;19.08;74.92
73457;BME280;61691;53.072;6.582;2023-07-29T06:34:09;100563.13;;;19.94;75.49
73457;BME280;61691;53.072;6.582;2023-07-29T06:36:35;100560.59;;;20.73;75.51
73457;BME280;61691;53.072;6.582;2023-07-29T06:39:02;100587.09;;;21.93;74.11
73457;BME280;61691;53.072;6.582;2023-07-29T06:41:29;100584.13;;;22.77;71.58
73457;BME280;61691;53.072;6.582;2023-07-29T06:43:57;100564.53;;;23.07;67.94
73457;BME280;61691;53.072;6.582;2023-07-29T06:46:23;100578.75;;;23.21;67.07
73457;BME280;61691;53.072;6.582;2023-07-29T06:48:50;100575.66;;;23.17;66.10
73457;BME280;61691;53.072;6.582;2023-07-29T06:51:17;100580.16;;;23.05;65.11
73457;BME280;61691;53.072;6.582;2023-07-29T06:53:43;100570.94;;;22.88;64.45
73457;BME280;61691;53.072;6.582;2023-07-29T06:56:10;100577.91;;;22.70;63.87
73457;BME280;61691;53.072;6.582;2023-07-29T06:58:37;100579.28;;;22.55;63.67
73457;BME280;61691;53.072;6.582;2023-07-29T07:01:04;100568.19;;;22.38;64.28
73457;BME280;61691;53.072;6.582;2023-07-29T07:03:30;100567.34;;;22.37;63.79
73457;BME280;61691;53.072;6.582;2023-07-29T07:05:57;100555.47;;;22.14;63.74
73457;BME280;61691;53.072;6.582;2023-07-29T07:08:24;100564.69;;;21.99;64.16
73457;BME280;61691;53.072;6.582;2023-07-29T07:10:51;100579.59;;;22.09;64.43
73457;BME280;61691;53.072;6.582;2023-07-29T07:13:17;100586.97;;;22.20;64.94
73457;BME280;61691;53.072;6.582;2023-07-29T07:15:44;100579.88;;;22.25;64.40
73457;BME280;61691;53.072;6.582;2023-07-29T07:18:11;100572.06;;;22.11;64.09
73457;BME280;61691;53.072;6.582;2023-07-29T07:20:38;100580.88;;;21.93;64.16
73457;BME280;61691;53.072;6.582;2023-07-29T07:23:04;100593.38;;;21.81;64.44
73457;BME280;61691;53.072;6.582;2023-07-29T07:25:37;100594.06;;;21.63;64.38
73457;BME280;61691;53.072;6.582;2023-07-29T07:28:04;100587.06;;;21.49;64.90
73457;BME280;61691;53.072;6.582;2023-07-29T07:30:31;100593.72;;;21.40;65.41
73457;BME280;61691;53.072;6.582;2023-07-29T07:32:57;100561.81;;;21.23;66.05
73457;BME280;61691;53.072;6.582;2023-07-29T07:35:24;100558.19;;;21.56;67.17
73457;BME280;61691;53.072;6.582;2023-07-29T07:37:51;100577.34;;;22.37;67.13
73457;BME280;61691;53.072;6.582;2023-07-29T07:40:18;100560.41;;;22.80;65.67
73457;BME280;61691;53.072;6.582;2023-07-29T07:42:44;100586.94;;;23.32;63.16
73457;BME280;61691;53.072;6.582;2023-07-29T07:45:11;100585.13;;;23.51;63.42
73457;BME280;61691;53.072;6.582;2023-07-29T07:47:38;100585.34;;;23.68;62.47
73457;BME280;61691;53.072;6.582;2023-07-29T07:50:05;100583.09;;;23.83;61.92
73457;BME280;61691;53.072;6.582;2023-07-29T07:52:31;100594.00;;;24.06;61.55
73457;BME280;61691;53.072;6.582;2023-07-29T07:54:58;100565.28;;;24.05;60.67
73457;BME280;61691;53.072;6.582;2023-07-29T07:57:25;100574.47;;;24.04;60.13
73457;BME280;61691;53.072;6.582;2023-07-29T07:59:51;100597.78;;;24.05;59.82
73457;BME280;61691;53.072;6.582;2023-07-29T08:02:19;100600.13;;;23.83;59.33
73457;BME280;61691;53.072;6.582;2023-07-29T08:04:46;100575.19;;;23.63;59.37
73457;BME280;61691;53.072;6.582;2023-07-29T08:07:13;100595.41;;;23.61;59.51
73457;BME280;61691;53.072;6.582;2023-07-29T08:09:40;100573.69;;;23.24;59.70
73457;BME280;61691;53.072;6.582;2023-07-29T08:12:07;100553.25;;;22.92;59.88
73457;BME280;61691;53.072;6.582;2023-07-29T08:14:34;100579.03;;;22.88;59.94
73457;BME280;61691;53.072;6.582;2023-07-29T08:17:00;100582.78;;;22.87;60.72
73457;BME280;61691;53.072;6.582;2023-07-29T08:19:28;100589.72;;;23.01;60.86
73457;BME280;61691;53.072;6.582;2023-07-29T08:21:55;100583.53;;;23.00;60.78
73457;BME280;61691;53.072;6.582;2023-07-29T08:24:21;100567.66;;;23.04;61.00
73457;BME280;61691;53.072;6.582;2023-07-29T08:26:48;100591.56;;;23.07;60.98
73457;BME280;61691;53.072;6.582;2023-07-29T08:29:15;100596.53;;;23.10;60.94
73457;BME280;61691;53.072;6.582;2023-07-29T08:31:41;100601.66;;;23.18;61.18
73457;BME280;61691;53.072;6.582;2023-07-29T08:34:08;100589.34;;;23.22;61.48
73457;BME280;61691;53.072;6.582;2023-07-29T08:36:35;100600.88;;;23.54;61.27
73457;BME280;61691;53.072;6.582;2023-07-29T08:39:02;100591.34;;;23.51;60.54
73457;BME280;61691;53.072;6.582;2023-07-29T08:41:32;100603.75;;;23.59;60.62
73457;BME280;61691;53.072;6.582;2023-07-29T08:44:22;100599.53;;;23.45;59.96
73457;BME280;61691;53.072;6.582;2023-07-29T08:46:50;100541.53;;;22.98;59.96
73457;BME280;61691;53.072;6.582;2023-07-29T08:49:21;100604.06;;;23.26;60.12
73457;BME280;61691;53.072;6.582;2023-07-29T08:51:51;100610.38;;;23.20;60.42
73457;BME280;61691;53.072;6.582;2023-07-29T08:54:20;100599.69;;;23.25;60.74
73457;BME280;61691;53.072;6.582;2023-07-29T08:56:46;100589.81;;;23.37;60.48
73457;BME280;61691;53.072;6.582;2023-07-29T08:59:14;100586.81;;;23.45;59.65
73457;BME280;61691;53.072;6.582;2023-07-29T09:01:43;100561.22;;;23.23;59.69
73457;BME280;61691;53.072;6.582;2023-07-29T09:04:10;100568.16;;;23.19;59.32
73457;BME280;61691;53.072;6.582;2023-07-29T09:06:37;100596.69;;;23.15;59.69
73457;BME280;61691;53.072;6.582;2023-07-29T09:09:07;100597.84;;;23.01;59.79
73457;BME280;61691;53.072;6.582;2023-07-29T09:11:35;100597.25;;;22.99;60.30
73457;BME280;61691;53.072;6.582;2023-07-29T09:14:01;100590.19;;;22.98;60.90
73457;BME280;61691;53.072;6.582;2023-07-29T09:16:28;100584.13;;;23.02;60.93
73457;BME280;61691;53.072;6.582;2023-07-29T09:18:55;100574.75;;;23.05;60.82
73457;BME280;61691;53.072;6.582;2023-07-29T09:21:24;100594.00;;;23.33;61.22
73457;BME280;61691;53.072;6.582;2023-07-29T09:23:55;100603.84;;;23.52;60.66
73457;BME280;61691;53.072;6.582;2023-07-29T09:26:24;100595.41;;;23.61;59.89
73457;BME280;61691;53.072;6.582;2023-07-29T09:28:56;100604.88;;;23.70;59.66
73457;BME280;61691;53.072;6.582;2023-07-29T09:31:26;100588.63;;;23.70;59.25
73457;BME280;61691;53.072;6.582;2023-07-29T09:34:01;100598.19;;;23.72;58.74
73457;BME280;61691;53.072;6.582;2023-07-29T09:36:33;100599.75;;;23.62;58.90
73457;BME280;61691;53.072;6.582;2023-07-29T09:39:01;100588.34;;;23.60;58.88
73457;BME280;61691;53.072;6.582;2023-07-29T09:41:29;100582.34;;;23.58;58.46
73457;BME280;61691;53.072;6.582;2023-07-29T09:44:01;100596.00;;;23.81;58.45
73457;BME280;61691;53.072;6.582;2023-07-29T09:46:35;100541.59;;;23.52;58.08
73457;BME280;61691;53.072;6.582;2023-07-29T09:49:05;100592.06;;;23.95;57.57
73457;BME280;61691;53.072;6.582;2023-07-29T09:51:40;100595.56;;;24.14;58.31
73457;BME280;61691;53.072;6.582;2023-07-29T09:54:07;100571.75;;;24.04;57.65
73457;BME280;61691;53.072;6.582;2023-07-29T09:56:39;100578.81;;;24.23;57.86
73457;BME280;61691;53.072;6.582;2023-07-29T09:59:07;100580.53;;;24.48;57.71
73457;BME280;61691;53.072;6.582;2023-07-29T10:01:34;100588.22;;;24.62;57.43
73457;BME280;61691;53.072;6.582;2023-07-29T10:04:04;100574.91;;;24.61;56.87
73457;BME280;61691;53.072;6.582;2023-07-29T10:06:33;100579.97;;;24.69;56.45
73457;BME280;61691;53.072;6.582;2023-07-29T10:09:02;100584.34;;;24.70;55.77
73457;BME280;61691;53.072;6.582;2023-07-29T10:11:29;100567.38;;;24.63;55.80
73457;BME280;61691;53.072;6.582;2023-07-29T10:13:57;100586.22;;;24.58;55.20
73457;BME280;61691;53.072;6.582;2023-07-29T10:16:36;100579.69;;;24.47;55.54
73457;BME280;61691;53.072;6.582;2023-07-29T10:19:04;100585.50;;;24.51;55.37
73457;BME280;61691;53.072;6.582;2023-07-29T10:21:31;100568.25;;;24.34;55.80
73457;BME280;61691;53.072;6.582;2023-07-29T10:24:01;100576.78;;;24.49;56.09
73457;BME280;61691;53.072;6.582;2023-07-29T10:26:31;100592.00;;;24.61;55.70
73457;BME280;61691;53.072;6.582;2023-07-29T10:29:02;100534.53;;;24.29;55.75
73457;BME280;61691;53.072;6.582;2023-07-29T10:31:32;100571.59;;;24.59;55.83
73457;BME280;61691;53.072;6.582;2023-07-29T10:33:59;100586.13;;;24.76;56.03
73457;BME280;61691;53.072;6.582;2023-07-29T10:36:27;100581.28;;;24.78;55.89
73457;BME280;61691;53.072;6.582;2023-07-29T10:38:54;100576.94;;;24.77;55.19
73457;BME280;61691;53.072;6.582;2023-07-29T10:41:22;100585.78;;;24.84;55.16
73457;BME280;61691;53.072;6.582;2023-07-29T10:43:49;100581.09;;;24.91;55.76
73457;BME280;61691;53.072;6.582;2023-07-29T10:46:18;100579.31;;;24.97;55.23
73457;BME280;61691;53.072;6.582;2023-07-29T10:51:33;100562.91;;;24.80;54.86
73457;BME280;61691;53.072;6.582;2023-07-29T10:54:11;100574.34;;;24.82;54.97
73457;BME280;61691;53.072;6.582;2023-07-29T10:56:46;100566.19;;;24.82;54.83
73457;BME280;61691;53.072;6.582;2023-07-29T11:01:53;100582.13;;;24.79;54.56
73457;BME280;61691;53.072;6.582;2023-07-29T11:17:40;100595.41;;;23.79;57.23
73457;BME280;61691;53.072;6.582;2023-07-29T11:20:07;100595.47;;;23.90;56.49
73457;BME280;61691;53.072;6.582;2023-07-29T11:22:35;100587.41;;;24.02;54.92
73457;BME280;61691;53.072;6.582;2023-07-29T11:25:03;100579.88;;;24.04;55.23
73457;BME280;61691;53.072;6.582;2023-07-29T11:27:31;100572.19;;;24.01;55.37
73457;BME280;61691;53.072;6.582;2023-07-29T11:30:03;100577.22;;;24.16;55.19
73457;BME280;61691;53.072;6.582;2023-07-29T11:32:32;100598.66;;;24.36;55.09
73457;BME280;61691;53.072;6.582;2023-07-29T11:35:04;100582.63;;;24.46;55.30
73457;BME280;61691;53.072;6.582;2023-07-29T11:37:33;100587.84;;;24.59;55.03
73457;BME280;61691;53.072;6.582;2023-07-29T11:40:00;100590.03;;;24.80;55.16
73457;BME280;61691;53.072;6.582;2023-07-29T11:42:27;100595.06;;;24.77;55.04
73457;BME280;61691;53.072;6.582;2023-07-29T11:44:58;100607.00;;;24.87;54.63
73457;BME280;61691;53.072;6.582;2023-07-29T11:47:25;100594.03;;;24.89;54.08
73457;BME280;61691;53.072;6.582;2023-07-29T11:49:52;100584.59;;;24.80;54.58
73457;BME280;61691;53.072;6.582;2023-07-29T11:52:19;100591.94;;;24.91;54.32
73457;BME280;61691;53.072;6.582;2023-07-29T11:54:48;100604.56;;;24.97;54.03
73457;BME280;61691;53.072;6.582;2023-07-29T11:57:17;100605.28;;;24.93;53.66
73457;BME280;61691;53.072;6.582;2023-07-29T11:59:45;100607.00;;;24.87;53.40
73457;BME280;61691;53.072;6.582;2023-07-29T12:02:14;100613.94;;;24.83;53.79
73457;BME280;61691;53.072;6.582;2023-07-29T12:04:43;100618.06;;;24.74;53.44
73457;BME280;61691;53.072;6.582;2023-07-29T12:07:13;100611.84;;;24.44;54.26
73457;BME280;61691;53.072;6.582;2023-07-29T12:09:41;100615.78;;;24.29;55.67
73457;BME280;61691;53.072;6.582;2023-07-29T12:12:08;100568.34;;;23.61;56.80
73457;BME280;61691;53.072;6.582;2023-07-29T12:14:35;100624.28;;;23.67;57.61
73457;BME280;61691;53.072;6.582;2023-07-29T12:17:04;100618.34;;;23.58;58.73
73457;BME280;61691;53.072;6.582;2023-07-29T12:19:32;100597.31;;;23.35;59.73
73457;BME280;61691;53.072;6.582;2023-07-29T12:22:01;100620.91;;;23.46;60.27
73457;BME280;61691;53.072;6.582;2023-07-29T12:24:29;100622.00;;;23.45;60.67
73457;BME280;61691;53.072;6.582;2023-07-29T12:26:56;100582.88;;;23.23;61.25
73457;BME280;61691;53.072;6.582;2023-07-29T12:29:23;100624.88;;;23.50;61.05
73457;BME280;61691;53.072;6.582;2023-07-29T12:32:00;100610.00;;;23.60;61.75
73457;BME280;61691;53.072;6.582;2023-07-29T12:34:28;100597.06;;;23.62;61.18
73457;BME280;61691;53.072;6.582;2023-07-29T12:36:57;100595.88;;;23.58;61.72
73457;BME280;61691;53.072;6.582;2023-07-29T12:39:26;100625.78;;;23.63;61.67
73457;BME280;61691;53.072;6.582;2023-07-29T12:41:55;100605.47;;;23.53;61.97
73457;BME280;61691;53.072;6.582;2023-07-29T12:44:29;100607.88;;;23.62;62.14
73457;BME280;61691;53.072;6.582;2023-07-29T12:46:56;100581.28;;;23.59;62.06
73457;BME280;61691;53.072;6.582;2023-07-29T12:49:24;100600.69;;;23.74;61.65
73457;BME280;61691;53.072;6.582;2023-07-29T12:51:51;100597.59;;;23.88;61.14
73457;BME280;61691;53.072;6.582;2023-07-29T12:54:18;100600.81;;;23.97;60.63
73457;BME280;61691;53.072;6.582;2023-07-29T12:56:45;100561.56;;;23.70;59.78
73457;BME280;61691;53.072;6.582;2023-07-29T12:59:11;100622.00;;;24.00;59.18
73457;BME280;61691;53.072;6.582;2023-07-29T13:01:38;100560.47;;;23.59;58.69
73457;BME280;61691;53.072;6.582;2023-07-29T13:04:05;100624.25;;;23.85;58.40
73457;BME280;61691;53.072;6.582;2023-07-29T13:06:31;100606.59;;;23.64;57.87
73457;BME280;61691;53.072;6.582;2023-07-29T13:08:58;100630.34;;;23.62;57.94
73457;BME280;61691;53.072;6.582;2023-07-29T13:11:25;100627.81;;;23.49;58.27
73457;BME280;61691;53.072;6.582;2023-07-29T13:13:52;100615.09;;;23.49;58.31